createdAt,value
2023-05-14T00:00:31.615Z,14.77
2023-05-14T00:02:59.153Z,14.71
2023-05-14T00:05:26.776Z,14.67
2023-05-14T00:08:03.867Z,14.62
2023-05-14T00:10:34.894Z,14.55
2023-05-14T00:13:02.312Z,14.47
2023-05-14T00:15:30.036Z,14.45
2023-05-14T00:17:57.759Z,14.44
2023-05-14T00:20:25.344Z,14.37
2023-05-14T00:22:52.868Z,14.33
2023-05-14T00:25:22.157Z,14.26
2023-05-14T00:27:49.498Z,14.21
2023-05-14T00:30:16.755Z,14.18
2023-05-14T00:32:44.158Z,14.11
2023-05-14T00:35:12.199Z,14.06
2023-05-14T00:37:39.767Z,14.01
2023-05-14T00:40:09.122Z,13.95
2023-05-14T00:42:37.709Z,13.89
2023-05-14T00:45:06.512Z,13.85
2023-05-14T00:47:34.961Z,13.80
2023-05-14T00:50:04.687Z,13.76
2023-05-14T00:52:32.498Z,13.71
2023-05-14T00:55:03.154Z,13.67
2023-05-14T00:57:30.585Z,13.62
2023-05-14T00:59:59.150Z,13.57
2023-05-14T01:02:26.561Z,13.51
2023-05-14T01:04:54.827Z,13.46
2023-05-14T01:07:45.119Z,13.44
2023-05-14T01:10:25.377Z,13.41
2023-05-14T01:13:21.187Z,13.33
2023-05-14T01:15:49.328Z,13.33
2023-05-14T01:18:19.634Z,13.29
2023-05-14T01:20:52.604Z,13.23
2023-05-14T01:23:20.262Z,13.21
2023-05-14T01:25:47.601Z,13.17
2023-05-14T01:28:32.742Z,13.12
2023-05-14T01:31:18.543Z,13.07
2023-05-14T01:33:49.578Z,13.03
2023-05-14T01:36:23.079Z,12.97
2023-05-14T01:38:51.762Z,12.93
2023-05-14T01:41:21.912Z,12.86
2023-05-14T01:43:49.438Z,12.85
2023-05-14T01:46:20.263Z,12.82
2023-05-14T01:48:47.567Z,12.77
2023-05-14T01:51:14.917Z,12.74
2023-05-14T01:53:42.349Z,12.67
2023-05-14T01:56:09.626Z,12.66
2023-05-14T01:58:36.936Z,12.64
2023-05-14T02:01:04.354Z,12.60
2023-05-14T02:03:31.739Z,12.60
2023-05-14T02:05:59.166Z,12.60
2023-05-14T02:08:28.088Z,12.58
2023-05-14T02:10:56.051Z,12.58
2023-05-14T02:13:26.914Z,12.55
2023-05-14T02:15:54.232Z,12.55
2023-05-14T02:18:21.533Z,12.52
2023-05-14T02:20:48.753Z,12.46
2023-05-14T02:23:16.089Z,12.44
2023-05-14T02:25:44.942Z,12.43
2023-05-14T02:28:12.188Z,12.39
2023-05-14T02:30:40.115Z,12.34
2023-05-14T02:33:07.461Z,12.29
2023-05-14T02:35:34.910Z,12.28
2023-05-14T02:38:02.224Z,12.27
2023-05-14T02:40:29.458Z,12.23
2023-05-14T02:42:57.250Z,12.17
2023-05-14T02:45:24.530Z,12.13
2023-05-14T02:47:51.829Z,12.09
2023-05-14T02:50:19.066Z,12.08
2023-05-14T02:52:46.309Z,12.05
2023-05-14T02:55:13.617Z,12.05
2023-05-14T02:57:40.901Z,12.02
2023-05-14T03:00:09.407Z,11.98
2023-05-14T03:02:37.539Z,11.95
2023-05-14T03:05:05.822Z,11.94
2023-05-14T03:07:33.132Z,11.93
2023-05-14T03:10:00.697Z,11.90
2023-05-14T03:12:28.156Z,11.85
2023-05-14T03:14:55.510Z,11.81
2023-05-14T03:17:23.001Z,11.77
2023-05-14T03:19:50.924Z,11.74
2023-05-14T03:22:18.410Z,11.70
2023-05-14T03:24:45.724Z,11.66
2023-05-14T03:27:12.988Z,11.64
2023-05-14T03:29:40.380Z,11.59
2023-05-14T03:32:07.936Z,11.52
2023-05-14T03:34:35.281Z,11.41
2023-05-14T03:37:02.508Z,11.42
2023-05-14T03:39:29.780Z,11.37
2023-05-14T03:41:58.868Z,11.33
2023-05-14T03:44:26.476Z,11.29
2023-05-14T03:46:53.903Z,11.24
2023-05-14T03:49:21.287Z,11.23
2023-05-14T03:51:48.636Z,11.18
2023-05-14T03:54:15.950Z,11.15
2023-05-14T03:56:44.756Z,11.12
2023-05-14T03:59:12.024Z,11.10
2023-05-14T04:01:39.247Z,11.07
2023-05-14T04:04:06.691Z,11.01
2023-05-14T04:06:34.282Z,11.00
2023-05-14T04:09:03.497Z,10.98
2023-05-14T04:11:30.812Z,10.98
2023-05-14T04:13:59.958Z,10.96
2023-05-14T04:16:27.286Z,10.95
2023-05-14T04:18:54.619Z,10.89
2023-05-14T04:21:21.894Z,10.94
2023-05-14T04:23:49.750Z,10.92
2023-05-14T04:26:17.193Z,10.92
2023-05-14T04:28:44.546Z,10.91
2023-05-14T04:31:13.484Z,10.91
2023-05-14T04:33:40.769Z,10.97
2023-05-14T04:36:09.138Z,10.94
2023-05-14T04:38:36.398Z,10.98
2023-05-14T04:41:03.877Z,11.07
2023-05-14T04:43:31.144Z,11.11
2023-05-14T04:45:58.458Z,11.21
2023-05-14T04:48:26.133Z,11.23
2023-05-14T04:50:53.553Z,11.18
2023-05-14T04:53:20.848Z,11.25
2023-05-14T04:55:48.098Z,11.28
2023-05-14T04:58:15.420Z,11.37
2023-05-14T05:00:43.660Z,11.37
2023-05-14T05:03:11.063Z,11.34
2023-05-14T05:05:38.416Z,11.33
2023-05-14T05:08:05.809Z,11.35
2023-05-14T05:10:33.160Z,11.32
2023-05-14T05:13:00.882Z,11.36
2023-05-14T05:15:28.132Z,11.39
2023-05-14T05:17:55.452Z,11.43
2023-05-14T05:20:23.393Z,11.43
2023-05-14T05:22:50.987Z,11.50
2023-05-14T05:25:18.416Z,11.54
2023-05-14T05:27:45.639Z,11.61
2023-05-14T05:30:13.377Z,11.71
2023-05-14T05:32:40.839Z,11.80
2023-05-14T05:35:08.966Z,11.74
2023-05-14T05:37:36.364Z,11.86
2023-05-14T05:40:06.238Z,12.01
2023-05-14T05:42:33.435Z,12.02
2023-05-14T05:45:00.847Z,11.93
2023-05-14T05:47:28.250Z,11.97
2023-05-14T05:49:55.593Z,11.94
2023-05-14T05:52:22.976Z,11.88
2023-05-14T05:54:50.557Z,11.86
2023-05-14T05:57:17.772Z,11.91
2023-05-14T05:59:45.060Z,11.92
2023-05-14T06:02:21.689Z,11.90
2023-05-14T06:04:49.109Z,12.00
2023-05-14T06:07:16.590Z,12.10
2023-05-14T06:09:43.860Z,12.19
2023-05-14T06:12:12.248Z,12.34
2023-05-14T06:14:39.446Z,12.44
2023-05-14T06:17:07.592Z,12.56
2023-05-14T06:19:34.840Z,12.71
2023-05-14T06:22:02.843Z,12.93
2023-05-14T06:24:30.038Z,12.98
2023-05-14T06:26:57.346Z,13.00
2023-05-14T06:29:25.774Z,13.09
2023-05-14T06:31:53.825Z,13.10
2023-05-14T06:34:21.123Z,13.18
2023-05-14T06:36:48.366Z,13.39
2023-05-14T06:39:15.638Z,13.41
2023-05-14T06:41:42.922Z,13.49
2023-05-14T06:44:15.805Z,13.64
2023-05-14T06:46:43.175Z,13.67
2023-05-14T06:49:10.536Z,13.77
2023-05-14T06:51:39.047Z,13.92
2023-05-14T06:54:06.448Z,13.93
2023-05-14T06:56:33.778Z,14.03
2023-05-14T06:59:01.070Z,14.14
2023-05-14T07:01:28.561Z,14.40
2023-05-14T07:03:56.313Z,14.42
2023-05-14T07:06:23.903Z,14.48
2023-05-14T07:08:51.233Z,14.53
2023-05-14T07:11:18.610Z,14.52
2023-05-14T07:13:45.937Z,14.53
2023-05-14T07:16:13.476Z,14.61
2023-05-14T07:18:41.234Z,14.73
2023-05-14T07:21:08.599Z,14.92
2023-05-14T07:23:39.006Z,15.07
2023-05-14T07:26:07.836Z,15.26
2023-05-14T07:28:35.436Z,15.50
2023-05-14T07:31:05.024Z,15.63
2023-05-14T07:33:32.451Z,15.71
2023-05-14T07:35:59.662Z,15.82
2023-05-14T07:38:27.470Z,15.94
2023-05-14T07:40:55.166Z,16.12
2023-05-14T07:43:22.430Z,16.24
2023-05-14T07:45:49.793Z,16.38
2023-05-14T07:48:17.325Z,16.51
2023-05-14T07:50:45.406Z,16.66
2023-05-14T07:53:12.652Z,16.75
2023-05-14T07:55:40.302Z,16.86
2023-05-14T07:58:07.699Z,16.94
2023-05-14T08:00:35.094Z,17.07
2023-05-14T08:03:02.585Z,17.13
2023-05-14T08:05:30.283Z,17.11
2023-05-14T08:07:57.546Z,17.11
2023-05-14T08:10:25.262Z,17.08
2023-05-14T08:12:52.756Z,17.08
2023-05-14T08:15:21.504Z,17.07
2023-05-14T08:17:48.824Z,17.17
2023-05-14T08:20:16.180Z,17.24
2023-05-14T08:22:44.700Z,17.36
2023-05-14T08:25:14.967Z,17.49
2023-05-14T08:27:43.230Z,17.64
2023-05-14T08:30:12.223Z,17.80
2023-05-14T08:32:40.855Z,17.98
2023-05-14T08:35:08.904Z,18.13
2023-05-14T08:37:36.258Z,18.28
2023-05-14T08:40:04.562Z,18.36
2023-05-14T08:42:32.603Z,18.63
2023-05-14T08:45:06.218Z,18.99
2023-05-14T08:47:34.533Z,19.40
2023-05-14T08:50:06.530Z,19.93
2023-05-14T08:52:35.261Z,20.31
2023-05-14T08:55:08.078Z,20.65
2023-05-14T08:57:36.312Z,20.99
2023-05-14T09:00:08.655Z,21.33
2023-05-14T09:02:36.897Z,21.53
2023-05-14T09:05:04.632Z,21.66
2023-05-14T09:07:32.213Z,21.74
2023-05-14T09:10:03.160Z,21.68
2023-05-14T09:12:31.111Z,21.67
2023-05-14T09:14:58.371Z,21.79
2023-05-14T09:17:30.059Z,22.13
2023-05-14T09:19:58.553Z,22.42
2023-05-14T09:22:32.078Z,22.65
2023-05-14T09:25:11.061Z,22.84
2023-05-14T09:27:39.151Z,22.89
2023-05-14T09:30:13.281Z,23.13
2023-05-14T09:32:44.537Z,23.39
2023-05-14T09:35:25.694Z,23.59
2023-05-14T09:37:55.512Z,23.86
2023-05-14T09:40:25.132Z,24.15
2023-05-14T09:42:53.037Z,24.24
2023-05-14T09:45:20.505Z,24.30
2023-05-14T09:47:48.291Z,24.36
2023-05-14T09:50:16.437Z,24.53
2023-05-14T09:52:43.719Z,24.75
2023-05-14T09:55:11.387Z,24.84
2023-05-14T09:57:38.731Z,25.05
2023-05-14T10:00:10.997Z,25.21
2023-05-14T10:02:44.240Z,25.39
2023-05-14T10:05:13.354Z,25.57
2023-05-14T10:07:49.471Z,25.69
2023-05-14T10:10:21.377Z,25.83
2023-05-14T10:13:06.837Z,25.91
2023-05-14T10:15:42.812Z,26.06
2023-05-14T10:18:23.087Z,26.06
2023-05-14T10:21:20.327Z,26.14
2023-05-14T10:23:49.653Z,26.21
2023-05-14T10:26:18.458Z,26.28
2023-05-14T10:28:46.658Z,26.07
2023-05-14T10:31:14.315Z,25.77
2023-05-14T10:33:50.785Z,25.76
2023-05-14T10:36:18.974Z,25.69
2023-05-14T10:38:49.209Z,25.62
2023-05-14T10:41:18.117Z,25.68
2023-05-14T10:43:45.869Z,25.96
2023-05-14T10:46:15.625Z,26.02
2023-05-14T10:48:44.508Z,26.03
2023-05-14T10:51:13.197Z,26.04
2023-05-14T10:53:43.290Z,26.15
2023-05-14T10:56:14.388Z,26.36
2023-05-14T10:58:45.917Z,26.46
2023-05-14T11:01:14.296Z,26.61
2023-05-14T11:03:45.941Z,26.69
2023-05-14T11:06:16.434Z,26.83
2023-05-14T11:08:46.440Z,26.97
2023-05-14T11:11:15.187Z,27.15
2023-05-14T11:13:44.790Z,27.31
2023-05-14T11:16:22.780Z,27.45
2023-05-14T11:19:03.778Z,27.69
2023-05-14T11:21:32.827Z,27.75
2023-05-14T11:24:02.831Z,27.80
2023-05-14T11:26:32.148Z,27.84
2023-05-14T11:29:02.404Z,27.93
2023-05-14T11:31:31.679Z,27.87
2023-05-14T11:34:13.106Z,27.78
2023-05-14T11:36:42.499Z,27.86
2023-05-14T11:39:21.740Z,27.81
2023-05-14T11:41:50.997Z,27.91
2023-05-14T11:44:22.576Z,27.84
2023-05-14T11:47:11.693Z,27.75
2023-05-14T11:49:46.716Z,27.63
2023-05-14T11:52:28.172Z,27.61
2023-05-14T11:54:59.152Z,27.56
2023-05-14T11:57:33.895Z,27.50
2023-05-14T12:00:34.061Z,27.41
2023-05-14T12:03:05.187Z,27.09
2023-05-14T12:06:00.908Z,26.82
2023-05-14T12:08:33.566Z,26.76
2023-05-14T12:11:02.402Z,26.81
2023-05-14T12:13:33.460Z,26.80
2023-05-14T12:16:13.329Z,26.69
2023-05-14T12:18:41.838Z,26.65
2023-05-14T12:21:15.886Z,26.48
2023-05-14T12:23:45.544Z,26.32
2023-05-14T12:26:14.326Z,26.26
2023-05-14T12:29:02.365Z,26.35
2023-05-14T12:32:09.314Z,26.41
2023-05-14T12:34:38.381Z,26.33
2023-05-14T12:37:07.809Z,26.29
2023-05-14T12:39:37.719Z,26.05
2023-05-14T12:42:08.949Z,25.83
2023-05-14T12:44:45.274Z,25.62
2023-05-14T12:47:22.155Z,25.44
2023-05-14T12:49:51.461Z,25.08
2023-05-14T12:52:29.472Z,24.67
2023-05-14T12:55:05.673Z,24.49
2023-05-14T12:57:35.434Z,24.44
2023-05-14T13:00:07.898Z,24.39
2023-05-14T13:02:43.021Z,24.29
2023-05-14T13:05:12.804Z,24.21
2023-05-14T13:07:40.375Z,24.21
2023-05-14T13:10:10.346Z,24.24
2023-05-14T13:12:38.668Z,24.29
2023-05-14T13:15:07.174Z,24.42
2023-05-14T13:17:34.588Z,24.61
2023-05-14T13:20:01.982Z,24.57
2023-05-14T13:22:29.792Z,24.47
2023-05-14T13:24:57.114Z,24.44
2023-05-14T13:27:24.527Z,24.31
2023-05-14T13:29:52.077Z,24.25
2023-05-14T13:32:19.431Z,24.03
2023-05-14T13:34:46.693Z,23.94
2023-05-14T13:37:14.539Z,23.93
2023-05-14T13:39:41.828Z,24.11
2023-05-14T13:42:09.351Z,24.53
2023-05-14T13:44:36.853Z,24.87
2023-05-14T13:47:04.720Z,25.13
2023-05-14T13:49:32.110Z,25.24
2023-05-14T13:51:59.418Z,25.10
2023-05-14T13:54:26.803Z,24.90
2023-05-14T13:56:55.335Z,24.66
2023-05-14T13:59:23.919Z,24.40
2023-05-14T14:01:51.886Z,24.21
2023-05-14T14:04:20.048Z,24.09
2023-05-14T14:06:47.799Z,23.92
2023-05-14T14:09:15.214Z,23.70
2023-05-14T14:11:42.780Z,23.46
2023-05-14T14:14:11.445Z,23.29
2023-05-14T14:16:39.230Z,23.18
2023-05-14T14:19:07.339Z,23.09
2023-05-14T14:21:35.457Z,22.94
2023-05-14T14:24:03.052Z,22.87
2023-05-14T14:26:30.347Z,22.82
2023-05-14T14:28:57.688Z,22.79
2023-05-14T14:31:25.097Z,22.78
2023-05-14T14:33:52.550Z,22.61
2023-05-14T14:36:19.819Z,22.35
2023-05-14T14:38:47.150Z,22.17
2023-05-14T14:41:14.403Z,21.93
2023-05-14T14:43:42.195Z,21.72
2023-05-14T14:46:10.410Z,21.58
2023-05-14T14:48:37.975Z,21.47
2023-05-14T14:51:07.914Z,21.38
2023-05-14T14:53:37.181Z,21.26
2023-05-14T14:56:05.132Z,21.16
2023-05-14T14:58:32.827Z,21.11
2023-05-14T15:01:01.671Z,21.12
2023-05-14T15:03:29.336Z,21.20
2023-05-14T15:05:56.840Z,21.29
2023-05-14T15:08:27.967Z,21.31
2023-05-14T15:10:59.440Z,21.39
2023-05-14T15:13:27.148Z,21.46
2023-05-14T15:15:54.486Z,21.56
2023-05-14T15:18:21.855Z,21.66
2023-05-14T15:20:49.381Z,21.73
2023-05-14T15:23:16.757Z,21.82
2023-05-14T15:25:44.404Z,21.90
2023-05-14T15:28:11.657Z,21.99
2023-05-14T15:30:38.996Z,22.08
2023-05-14T15:33:08.888Z,22.24
2023-05-14T15:35:36.632Z,22.31
2023-05-14T15:38:05.202Z,22.32
2023-05-14T15:40:34.999Z,22.36
2023-05-14T15:43:02.349Z,22.51
2023-05-14T15:45:29.659Z,22.67
2023-05-14T15:47:57.272Z,22.77
2023-05-14T15:50:27.423Z,22.85
2023-05-14T15:52:54.869Z,22.74
2023-05-14T15:55:22.282Z,22.76
2023-05-14T15:57:50.865Z,22.68
2023-05-14T16:00:18.754Z,22.58
2023-05-14T16:02:46.167Z,22.54
2023-05-14T16:05:15.326Z,22.46
2023-05-14T16:07:43.520Z,22.51
2023-05-14T16:10:11.355Z,22.48
2023-05-14T16:12:38.772Z,22.51
2023-05-14T16:15:08.268Z,22.47
2023-05-14T16:17:35.919Z,22.47
2023-05-14T16:20:04.918Z,22.40
2023-05-14T16:22:34.628Z,22.25
2023-05-14T16:25:04.289Z,22.14
2023-05-14T16:27:31.771Z,22.04
2023-05-14T16:29:59.409Z,21.99
2023-05-14T16:32:27.697Z,21.92
2023-05-14T16:34:56.553Z,21.82
2023-05-14T16:37:23.997Z,21.74
2023-05-14T16:39:51.287Z,21.61
2023-05-14T16:42:18.558Z,21.53
2023-05-14T16:44:45.834Z,21.44
2023-05-14T16:47:13.351Z,21.36
2023-05-14T16:49:40.638Z,21.24
2023-05-14T16:52:08.436Z,21.16
2023-05-14T16:54:36.438Z,21.09
2023-05-14T16:57:04.360Z,21.03
2023-05-14T16:59:31.762Z,20.93
2023-05-14T17:01:59.111Z,20.89
2023-05-14T17:04:26.637Z,20.87
2023-05-14T17:06:54.515Z,20.82
2023-05-14T17:09:21.792Z,20.78
2023-05-14T17:11:49.156Z,20.73
2023-05-14T17:14:16.547Z,20.67
2023-05-14T17:16:43.978Z,20.58
2023-05-14T17:19:11.355Z,20.52
2023-05-14T17:21:38.716Z,20.51
2023-05-14T17:24:06.462Z,20.42
2023-05-14T17:26:33.736Z,20.38
2023-05-14T17:29:01.750Z,20.33
2023-05-14T17:31:29.238Z,20.30
2023-05-14T17:33:56.856Z,20.23
2023-05-14T17:36:25.137Z,20.19
2023-05-14T17:38:52.546Z,20.12
2023-05-14T17:41:19.790Z,20.06
2023-05-14T17:43:47.060Z,19.98
2023-05-14T17:46:14.468Z,19.84
2023-05-14T17:48:41.865Z,19.77
2023-05-14T17:51:09.146Z,19.73
2023-05-14T17:53:36.344Z,19.66
2023-05-14T17:56:04.701Z,19.58
2023-05-14T17:58:31.992Z,19.49
2023-05-14T18:00:59.374Z,19.46
2023-05-14T18:03:27.030Z,19.40
2023-05-14T18:05:54.703Z,19.33
2023-05-14T18:08:26.845Z,19.25
2023-05-14T18:10:54.293Z,19.15
2023-05-14T18:13:21.851Z,19.09
2023-05-14T18:15:51.569Z,18.98
2023-05-14T18:18:18.891Z,18.88
2023-05-14T18:20:46.300Z,18.71
2023-05-14T18:23:13.566Z,18.58
2023-05-14T18:25:40.820Z,18.48
2023-05-14T18:28:09.266Z,18.39
2023-05-14T18:30:36.600Z,18.30
2023-05-14T18:33:04.052Z,18.23
2023-05-14T18:35:31.425Z,18.15
2023-05-14T18:37:58.808Z,18.07
2023-05-14T18:40:26.054Z,17.91
2023-05-14T18:42:53.362Z,17.86
2023-05-14T18:45:21.949Z,17.78
2023-05-14T18:47:50.023Z,17.72
2023-05-14T18:50:17.409Z,17.63
2023-05-14T18:52:44.905Z,17.56
2023-05-14T18:55:12.303Z,17.45
2023-05-14T18:57:40.016Z,17.36
2023-05-14T19:00:08.498Z,17.27
2023-05-14T19:02:36.057Z,17.20
2023-05-14T19:05:03.443Z,17.10
2023-05-14T19:07:31.599Z,17.01
2023-05-14T19:09:58.841Z,16.91
2023-05-14T19:12:26.743Z,16.82
2023-05-14T19:14:55.344Z,16.74
2023-05-14T19:17:22.784Z,16.64
2023-05-14T19:19:50.316Z,16.57
2023-05-14T19:22:17.743Z,16.51
2023-05-14T19:24:45.017Z,16.42
2023-05-14T19:27:16.154Z,16.40
2023-05-14T19:29:44.610Z,16.35
2023-05-14T19:32:11.886Z,16.30
2023-05-14T19:34:39.094Z,16.24
2023-05-14T19:37:06.643Z,16.15
2023-05-14T19:39:33.860Z,16.13
2023-05-14T19:42:01.319Z,16.09
2023-05-14T19:44:28.699Z,16.08
2023-05-14T19:46:56.100Z,16.06
2023-05-14T19:49:23.480Z,16.04
2023-05-14T19:51:50.771Z,16.00
2023-05-14T19:54:19.265Z,15.99
2023-05-14T19:56:46.826Z,15.94
2023-05-14T19:59:14.140Z,15.91
2023-05-14T20:01:41.588Z,15.91
2023-05-14T20:04:09.013Z,15.91
2023-05-14T20:06:36.934Z,15.88
2023-05-14T20:09:05.880Z,15.85
2023-05-14T20:11:33.237Z,15.86
2023-05-14T20:14:00.448Z,15.80
2023-05-14T20:16:28.594Z,15.79
2023-05-14T20:18:56.273Z,15.77
2023-05-14T20:21:23.777Z,15.76
2023-05-14T20:23:52.161Z,15.70
2023-05-14T20:26:19.608Z,15.62
2023-05-14T20:28:46.816Z,15.55
2023-05-14T20:31:14.190Z,15.49
2023-05-14T20:33:41.507Z,15.49
2023-05-14T20:36:08.756Z,15.45
2023-05-14T20:38:36.311Z,15.40
2023-05-14T20:41:03.603Z,15.32
2023-05-14T20:43:30.981Z,15.27
2023-05-14T20:46:02.237Z,15.19
2023-05-14T20:48:29.584Z,15.15
2023-05-14T20:50:56.838Z,15.17
2023-05-14T20:53:25.444Z,15.09
2023-05-14T20:55:52.758Z,15.08
2023-05-14T20:58:20.460Z,14.99
2023-05-14T21:00:47.851Z,14.95
2023-05-14T21:03:15.302Z,14.92
2023-05-14T21:05:43.769Z,14.87
2023-05-14T21:08:11.310Z,14.82
2023-05-14T21:10:38.610Z,14.79
2023-05-14T21:13:07.120Z,14.74
2023-05-14T21:15:34.492Z,14.65
2023-05-14T21:18:03.133Z,14.64
2023-05-14T21:20:30.594Z,14.58
2023-05-14T21:22:57.932Z,14.52
2023-05-14T21:25:25.576Z,14.49
2023-05-14T21:27:53.060Z,14.43
2023-05-14T21:30:20.451Z,14.36
2023-05-14T21:32:47.834Z,14.31
2023-05-14T21:35:15.956Z,14.28
2023-05-14T21:37:43.409Z,14.21
2023-05-14T21:40:14.644Z,14.16
2023-05-14T21:42:41.955Z,14.15
2023-05-14T21:45:10.521Z,14.10
2023-05-14T21:47:38.571Z,14.05
2023-05-14T21:50:08.556Z,13.96
2023-05-14T21:52:38.129Z,13.95
2023-05-14T21:55:06.351Z,13.88
2023-05-14T21:57:34.648Z,13.86
2023-05-14T22:00:04.801Z,13.82
2023-05-14T22:02:32.483Z,13.77
2023-05-14T22:05:00.052Z,13.72
2023-05-14T22:07:27.431Z,13.70
2023-05-14T22:09:54.794Z,13.67
2023-05-14T22:12:22.066Z,13.63
2023-05-14T22:14:49.449Z,13.57
2023-05-14T22:17:16.780Z,13.54
2023-05-14T22:19:44.051Z,13.48
2023-05-14T22:22:11.334Z,13.48
2023-05-14T22:24:38.583Z,13.45
2023-05-14T22:27:06.253Z,13.42
2023-05-14T22:29:33.945Z,13.39
2023-05-14T22:32:02.031Z,13.34
2023-05-14T22:34:29.244Z,13.30
2023-05-14T22:36:56.507Z,13.25
2023-05-14T22:39:23.753Z,13.23
2023-05-14T22:41:54.947Z,13.20
2023-05-14T22:44:23.645Z,13.17
2023-05-14T22:46:51.331Z,13.14
2023-05-14T22:49:18.615Z,13.11
2023-05-14T22:51:45.952Z,13.06
2023-05-14T22:54:13.221Z,13.02
2023-05-14T22:56:40.572Z,12.98
2023-05-14T22:59:10.315Z,12.95
2023-05-14T23:01:37.724Z,12.91
2023-05-14T23:04:05.253Z,12.87
2023-05-14T23:06:32.568Z,12.85
2023-05-14T23:08:59.747Z,12.81
2023-05-14T23:11:27.393Z,12.76
2023-05-14T23:13:54.592Z,12.74
2023-05-14T23:16:22.027Z,12.74
2023-05-14T23:18:49.559Z,12.74
2023-05-14T23:21:16.952Z,12.69
2023-05-14T23:23:45.395Z,12.67
2023-05-14T23:26:13.472Z,12.67
2023-05-14T23:28:41.128Z,12.65
2023-05-14T23:31:08.372Z,12.63
2023-05-14T23:33:35.971Z,12.62
2023-05-14T23:36:04.327Z,12.62
2023-05-14T23:38:32.072Z,12.62
2023-05-14T23:40:59.343Z,12.61
2023-05-14T23:43:26.647Z,12.57
2023-05-14T23:45:54.159Z,12.52
2023-05-14T23:48:21.430Z,12.45
2023-05-14T23:50:48.809Z,12.44
2023-05-14T23:53:16.045Z,12.40
2023-05-14T23:55:43.551Z,12.35
2023-05-14T23:58:11.007Z,12.32
